Date,TemperatureHighF,TemperatureAvgF,TemperatureLowF,DewpointHighF,DewpointAvgF,DewpointLowF,HumidityHigh,HumidityAvg,HumidityLow,PressureMaxIn,PressureMinIn,WindSpeedMaxMPH,WindSpeedAvgMPH,GustSpeedMaxMPH,PrecipitationSumIn
2014-1-1,23.9,14.5,1.1,11.3,5.0,-8.4,77,66,55,30.47,30.12,23,4,23,0.00
2014-1-2,1.3,-0.6,-3.1,-3.2,-5.4,-8.3,83,80,65,30.47,30.03,28,11,28,0.00
2014-1-3,2.5,-3.2,-11.9,-1.8,-7.6,-16.6,82,81,79,30.44,30.00,28,10,28,0.00
2014-1-4,17.8,5.4,-12.1,13.7,1.1,-16.8,85,82,79,30.45,30.15,20,8,20,0.00
2014-1-5,31.7,24.2,16.6,27.0,18.2,11.7,84,78,67,30.26,29.72,13,5,13,0.00
2014-1-6,47.9,35.7,20.0,41.9,25.0,3.8,83,66,48,29.72,29.22,30,8,30,0.00
2014-1-7,20.0,10.3,7.0,3.6,-2.5,-8.0,68,56,48,30.11,29.54,24,6,24,0.00
2014-1-8,20.0,11.9,6.3,6.1,1.1,-3.8,66,62,53,30.41,30.11,16,8,16,0.00
2014-1-9,32.8,18.2,13.3,17.5,7.7,4.1,71,63,50,30.61,30.38,9,3,9,0.00
2014-1-10,32.9,24.8,15.5,26.2,18.2,7.8,80,76,71,30.52,30.18,14,7,14,0.00
2014-1-11,49.7,38.5,31.1,43.0,31.9,25.7,83,77,66,30.18,29.13,17,4,17,0.00
2014-1-12,45.5,39.6,31.7,37.7,29.4,24.0,74,67,54,29.95,29.23,18,4,18,0.00
2014-1-13,42.8,36.6,29.5,34.0,28.1,22.5,78,71,62,30.01,29.74,16,7,16,0.00
2014-1-14,43.2,39.4,36.4,35.6,33.7,30.3,83,80,71,29.80,29.68,11,3,11,0.00
2014-1-15,41.9,36.4,30.4,34.5,30.9,26.2,84,80,74,29.93,29.79,12,4,15,0.00
2014-1-16,33.3,31.0,29.3,28.6,26.5,24.5,85,83,80,29.99,29.91,11,2,11,0.00
2014-1-17,36.4,28.3,20.2,29.2,23.5,16.0,86,82,75,29.93,29.84,13,4,13,0.00
2014-1-18,38.2,27.6,15.3,31.4,22.6,11.3,86,82,74,29.89,29.67,7,2,7,0.00
2014-1-19,31.1,29.0,26.8,26.5,22.9,18.7,83,78,65,29.71,29.43,15,6,15,0.00
2014-1-20,32.4,19.5,4.7,24.3,12.4,-3.9,80,74,67,30.00,29.43,9,3,9,0.00
2014-1-21,8.6,1.9,-4.0,0.1,-4.9,-10.5,84,73,63,30.17,30.00,18,4,18,0.00
2014-1-22,6.8,-0.3,-5.6,2.7,-4.5,-10.6,84,82,80,30.10,29.90,22,6,23,0.00
2014-1-23,13.5,1.0,-9.7,7.0,-4.3,-14.5,83,78,69,30.21,30.02,7,2,7,0.00
2014-1-24,15.5,4.6,-10.4,3.0,-4.1,-16.3,77,67,55,30.30,29.81,16,5,16,0.00
2014-1-25,21.2,18.2,13.5,15.4,10.2,2.2,81,71,60,29.81,29.31,16,8,20,0.00
2014-1-26,20.5,13.3,2.5,14.2,0.0,-8.6,80,55,41,29.77,29.32,20,4,20,0.00
2014-1-27,32.0,20.8,10.4,24.8,7.4,-4.8,77,57,32,30.02,29.34,36,8,36,0.00
2014-1-28,22.0,11.3,4.9,2.6,-3.4,-6.9,60,51,40,30.26,30.02,14,4,14,0.00
2014-1-29,22.5,10.7,1.4,3.3,-2.9,-8.5,64,54,36,30.19,29.92,22,6,22,0.00
2014-1-30,29.2,17.3,8.5,11.3,5.0,-0.1,68,59,45,30.37,29.99,20,8,20,0.00
2014-1-31,36.4,27.9,21.6,21.5,14.4,7.8,67,57,49,30.16,29.93,16,7,16,0.00
2014-2-1,37.4,29.4,19.1,29.9,22.1,13.0,84,74,61,30.30,29.90,13,3,13,0.00
2014-2-2,37.8,35.3,31.5,31.9,29.5,23.2,83,79,71,30.14,29.81,12,3,12,0.00
2014-2-3,31.5,25.3,19.8,23.4,16.9,10.7,80,70,62,30.34,30.13,10,3,10,0.00
2014-2-4,31.7,23.8,17.8,19.3,14.7,11.2,76,68,57,30.48,30.33,7,2,7,0.00
2014-2-5,24.3,19.7,13.7,19.0,14.6,8.1,85,80,69,30.33,29.80,13,4,13,0.00
2014-2-6,24.1,13.6,5.4,12.2,5.5,-0.9,79,70,59,30.31,30.09,9,2,9,0.00
2014-2-7,33.3,17.0,5.0,15.0,5.3,-1.3,78,61,41,30.19,30.11,15,4,15,0.00
2014-2-8,31.9,12.1,-2.5,15.3,1.1,-11.1,70,61,48,30.28,30.16,5,1,7,0.00
2014-2-9,26.6,16.5,7.4,15.2,8.4,-0.2,79,70,59,30.19,29.95,7,2,7,0.00
2014-2-10,30.1,18.1,6.5,18.9,9.9,-1.6,80,70,55,30.22,29.95,6,2,6,0.00
2014-2-11,12.1,6.9,1.8,1.7,-1.9,-8.5,75,67,54,30.52,30.21,7,1,7,0.00
2014-2-12,32.8,6.0,-13.7,12.5,-5.5,-21.3,71,60,39,30.61,30.33,11,3,11,0.00
2014-2-13,27.7,20.2,7.6,21.2,12.3,-4.2,85,71,55,30.33,29.27,18,6,18,0.00
2014-2-14,34.9,26.8,20.3,26.9,21.1,15.5,85,79,67,29.68,29.07,28,10,28,0.00
2014-2-15,38.9,24.2,15.5,30.0,18.8,11.3,84,80,66,29.82,29.68,11,2,11,0.00
2014-2-16,30.6,19.8,11.9,17.2,8.5,-2.0,80,62,43,30.08,29.74,22,6,22,0.00
2014-2-17,27.0,9.3,-2.2,9.2,-3.4,-12.1,64,56,44,30.40,30.08,13,2,13,0.00
2014-2-18,31.3,17.3,-1.3,23.9,9.7,-10.9,84,72,63,30.30,29.98,10,3,10,0.00
2014-2-19,34.4,26.8,13.9,28.4,21.8,9.7,86,81,73,30.05,29.69,13,4,13,0.00
2014-2-20,44.1,33.7,24.1,32.0,26.6,20.0,85,76,61,30.16,29.88,11,4,11,0.00
2014-2-21,40.9,36.8,33.8,35.7,31.7,28.3,84,82,79,30.05,29.60,10,3,10,0.00
2014-2-22,53.6,39.6,31.1,30.3,23.1,10.4,84,56,25,29.90,29.71,25,8,25,0.00
2014-2-23,51.1,39.9,33.1,25.4,17.8,11.3,60,42,24,29.91,29.76,22,7,22,0.00
2014-2-24,32.4,25.7,20.0,15.3,8.8,4.2,58,49,39,29.95,29.77,28,7,28,0.00
2014-2-25,27.9,19.5,13.3,12.8,6.9,2.2,63,58,50,29.98,29.88,22,4,22,0.00
2014-2-26,22.7,14.7,9.4,11.3,-0.3,-7.0,73,53,30,29.88,29.77,26,6,26,0.00
2014-2-27,25.2,15.0,7.7,12.7,0.9,-13.0,77,54,34,29.93,29.54,33,7,33,0.00
2014-2-28,40.9,13.7,2.2,10.9,-3.2,-9.8,59,48,27,30.42,29.93,10,3,10,0.00
2014-3-1,36.4,19.7,4.5,14.6,4.3,-7.2,63,51,37,30.40,30.00,18,8,19,0.00
2014-3-2,29.2,21.3,11.3,19.5,11.2,3.2,75,65,52,30.17,30.00,10,4,10,0.00
2014-3-3,34.4,11.5,-1.8,9.2,-1.9,-11.2,75,56,31,30.34,30.08,20,3,20,0.00
2014-3-4,25.0,10.8,-5.8,9.1,-1.0,-15.3,75,59,44,30.37,30.26,11,2,11,0.00
2014-3-5,32.6,17.4,8.3,13.6,7.0,-1.8,80,64,41,30.62,30.27,10,3,10,0.00
2014-3-6,56.0,17.4,-5.2,23.6,0.7,-12.3,74,51,21,30.71,30.45,9,2,9,0.00
2014-3-7,50.9,25.0,9.2,24.9,9.4,-4.2,62,51,36,30.45,29.90,20,9,20,0.00
2014-3-8,36.4,28.8,21.4,27.0,20.0,13.7,78,69,62,29.93,29.81,11,3,11,0.00
2014-3-9,37.3,24.8,18.0,19.2,11.5,7.1,75,57,41,30.03,29.84,8,3,8,0.00
2014-3-10,42.7,31.7,24.5,29.0,22.7,14.0,82,70,56,29.84,29.49,12,4,12,0.00
2014-3-11,56.9,39.2,30.1,37.2,29.7,24.8,83,70,45,29.72,29.43,23,3,23,0.00
2014-3-12,34.6,25.7,14.8,28.0,20.7,10.8,85,81,74,29.72,29.36,30,11,34,0.00
2014-3-13,22.9,13.7,5.0,18.7,7.7,-3.8,85,78,55,29.98,29.38,30,10,34,0.00
2014-3-14,35.1,17.2,-4.0,23.6,8.4,-10.5,78,69,60,30.09,29.70,20,6,20,0.00
2014-3-15,49.5,38.1,29.2,35.5,26.2,18.6,81,62,49,29.93,29.58,24,6,24,0.00
2014-3-16,31.0,20.0,9.9,19.7,4.6,-4.7,69,51,37,30.27,29.93,27,8,28,0.00
2014-3-17,34.6,12.7,0.9,12.1,-1.4,-8.5,67,54,33,30.25,30.12,6,2,6,0.00
2014-3-18,47.2,19.2,1.4,22.8,5.0,-8.4,68,55,28,30.35,30.21,5,1,5,0.00
2014-3-19,40.9,28.5,12.8,28.0,15.7,3.9,82,60,42,30.30,29.87,13,4,13,0.00
2014-3-20,46.4,37.5,32.8,37.4,28.2,24.1,84,70,48,29.87,29.61,18,4,18,0.00
2014-3-21,48.8,35.3,27.9,25.9,21.3,16.5,70,57,38,30.01,29.70,26,9,26,0.00
2014-3-22,49.9,33.5,25.4,30.6,22.4,15.4,73,64,44,30.02,29.60,27,6,27,0.00
2014-3-23,42.3,28.7,15.8,25.4,13.1,-0.9,68,53,32,30.19,29.88,28,5,28,0.00
2014-3-24,40.5,21.4,9.9,13.9,4.1,-2.7,60,48,30,30.22,30.06,8,2,8,0.00
2014-3-25,48.6,25.7,13.0,20.3,10.4,2.5,68,53,32,30.10,29.93,15,5,15,0.00
2014-3-26,31.7,25.1,19.3,15.7,10.0,1.2,73,53,35,30.14,29.87,34,10,34,0.00
2014-3-27,38.0,26.0,10.8,17.7,8.9,-0.8,60,49,38,30.33,30.10,15,6,15,0.00
2014-3-28,42.3,37.0,31.9,36.8,30.0,17.7,83,76,53,30.11,29.83,15,7,15,0.00
2014-3-29,47.0,39.5,33.8,34.9,31.5,27.1,82,73,59,30.29,30.00,10,3,10,0.00
2014-3-30,35.5,33.9,31.3,30.8,28.5,26.5,84,81,75,30.00,29.80,24,11,24,0.00
2014-3-31,38.2,33.9,31.1,28.4,26.5,25.1,82,74,67,30.17,29.90,25,11,25,0.00
2014-4-1,48.4,37.3,31.1,29.8,25.0,20.0,72,61,48,30.18,29.99,14,3,15,0.00
2014-4-2,67.1,42.8,31.7,40.6,30.2,22.6,79,63,36,30.06,29.96,15,6,18,0.00
2014-4-3,47.9,36.2,30.6,28.5,23.8,20.5,68,61,45,30.20,30.06,12,3,13,0.00
2014-4-4,50.8,37.3,26.3,33.7,26.8,18.7,82,66,49,30.18,29.75,15,4,15,0.00
2014-4-5,46.6,39.0,35.8,37.8,29.3,22.6,83,69,50,29.98,29.68,29,8,29,0.00
2014-4-6,62.3,41.9,32.8,34.7,25.4,20.8,65,53,31,30.16,29.98,22,5,22,0.00
2014-4-7,58.0,42.6,28.8,36.9,29.4,22.1,78,61,42,30.18,29.79,14,3,14,0.00
2014-4-8,60.1,46.0,37.3,51.8,38.0,31.4,82,74,57,29.79,29.23,21,5,21,0.00
2014-4-9,45.7,40.4,30.2,34.7,24.9,12.8,77,56,30,29.95,29.55,25,8,25,0.00
2014-4-10,68.0,46.4,27.0,38.1,28.3,16.3,71,51,32,30.05,29.76,22,8,22,0.00
2014-4-11,63.2,52.1,41.4,41.1,32.8,26.2,72,49,31,30.03,29.79,18,4,18,0.00
2014-4-12,67.3,47.8,33.3,42.9,31.2,23.0,82,56,30,30.20,30.02,9,2,10,0.00
2014-4-13,73.3,54.1,40.3,52.8,41.3,27.5,82,63,46,30.20,29.81,18,4,18,0.00
2014-4-14,84.4,64.9,42.8,58.9,50.9,35.8,82,63,40,29.87,29.59,22,7,22,0.09
2014-4-15,64.1,54.9,31.9,57.1,48.5,26.3,84,79,73,29.90,29.38,15,4,15,1.49
2014-4-16,56.3,33.2,25.4,29.2,18.2,11.6,83,55,33,30.64,29.87,32,7,32,0.12
2014-4-17,63.4,39.0,25.6,33.5,23.0,17.1,74,54,31,30.78,30.57,13,3,13,0.00
2014-4-18,62.3,44.3,31.3,30.2,23.4,19.1,64,46,28,30.59,30.16,18,7,18,0.00
2014-4-19,67.0,47.0,36.0,38.5,30.8,21.4,72,55,31,30.44,30.12,18,4,18,0.00
2014-4-20,70.9,48.0,29.5,32.4,27.0,20.5,73,48,23,30.52,30.20,13,4,13,0.00
2014-4-21,78.7,56.5,45.7,41.9,34.1,26.3,58,44,26,30.21,29.74,16,7,16,0.00
2014-4-22,68.0,56.8,49.3,51.8,41.7,32.4,82,58,39,29.74,29.41,16,5,16,0.02
2014-4-23,52.2,46.9,44.3,45.1,37.0,26.1,81,69,49,29.77,29.44,32,11,32,0.00
2014-4-24,55.1,44.5,37.8,29.5,25.6,20.4,57,48,35,29.99,29.77,32,15,32,0.00
2014-4-25,59.2,45.2,33.5,33.3,25.2,13.9,61,46,24,30.06,29.72,8,2,9,0.00
2014-4-26,51.5,46.0,43.2,44.2,38.8,27.6,82,76,44,29.84,29.69,11,4,11,0.26
2014-4-27,56.3,43.9,39.2,44.8,37.3,34.2,83,78,59,30.14,29.84,8,2,8,0.10
2014-4-28,59.6,47.6,39.2,42.2,36.6,33.7,81,66,51,30.18,30.08,11,4,11,0.00
2014-4-29,64.3,51.6,44.3,40.7,37.4,33.3,78,60,39,30.42,30.17,15,5,15,0.02
2014-4-30,49.3,44.7,41.4,40.5,37.3,34.0,82,75,67,30.45,30.03,12,4,12,0.29
2014-5-1,69.3,55.1,43.2,58.2,46.6,37.1,81,74,50,30.03,29.62,16,4,16,0.21
2014-5-2,64.8,52.7,44.3,44.1,38.7,33.3,78,60,40,29.78,29.64,23,5,23,0.00
2014-5-3,63.4,52.5,48.1,47.8,43.5,36.9,82,72,54,29.80,29.64,22,3,22,0.10
2014-5-4,56.0,49.9,45.9,43.0,40.8,37.3,81,72,54,29.68,29.51,19,4,19,0.20
2014-5-5,60.5,51.3,46.1,47.2,40.9,37.3,81,68,53,29.89,29.69,28,7,28,0.00
2014-5-6,72.9,51.3,40.1,40.3,35.5,27.4,80,57,29,30.07,29.85,8,2,9,0.00
2014-5-7,74.2,50.0,40.9,42.8,34.0,28.8,69,55,30,30.25,30.07,9,3,9,0.00
2014-5-8,68.9,52.8,38.5,41.7,34.8,30.5,78,53,32,30.18,30.08,8,2,9,0.00
2014-5-9,68.0,57.8,48.8,55.1,46.4,33.8,76,66,45,30.14,29.91,14,6,14,0.02
2014-5-10,79.6,68.5,61.0,65.5,51.2,30.7,79,57,24,29.92,29.67,28,7,28,0.23
2014-5-11,83.2,63.7,51.8,48.3,41.6,36.9,68,46,25,30.00,29.80,21,5,21,0.00
2014-5-12,77.0,62.9,53.6,51.1,43.9,36.6,68,51,36,30.09,29.99,9,3,9,0.00
2014-5-13,71.8,58.9,51.7,53.4,45.2,39.9,70,61,50,30.22,30.08,12,4,12,0.01
2014-5-14,88.6,67.6,56.0,61.7,52.2,45.1,70,59,40,30.17,30.06,18,9,18,0.00
2014-5-15,77.4,69.0,65.2,65.8,59.9,52.4,78,73,61,30.14,30.01,18,6,18,0.00
2014-5-16,75.1,69.7,66.6,66.4,61.6,58.6,78,75,68,30.01,29.74,16,6,16,0.15
2014-5-17,72.7,60.0,50.4,59.1,45.8,36.6,80,61,31,30.09,29.74,13,4,13,0.77
2014-5-18,65.5,53.0,41.4,42.7,37.9,34.2,80,59,37,30.19,30.09,9,2,9,0.00
2014-5-19,82.3,55.4,41.2,48.9,38.4,33.7,77,56,30,30.15,30.03,8,2,8,0.00
2014-5-20,76.5,58.3,42.3,48.7,41.9,35.7,80,57,33,30.11,29.96,8,2,8,0.00
2014-5-21,84.2,60.9,45.4,50.9,44.6,38.3,79,58,29,29.99,29.82,6,1,6,0.00
2014-5-22,60.8,57.2,54.7,54.4,49.3,44.1,81,75,59,29.82,29.79,5,1,5,0.31
2014-5-23,64.4,58.9,55.8,57.1,50.9,45.8,79,75,69,29.95,29.80,5,1,5,0.03
2014-5-24,73.1,61.2,55.1,59.5,51.5,42.7,80,71,57,30.05,29.94,12,1,12,0.04
2014-5-25,81.7,64.1,53.1,62.1,53.3,44.6,79,69,50,30.07,29.90,7,2,7,0.00
2014-5-26,73.8,65.6,59.0,62.8,56.5,49.4,79,73,55,29.90,29.76,12,3,15,0.13
2014-5-27,72.5,63.2,56.7,64.0,55.9,48.1,79,77,72,29.84,29.69,7,1,7,0.66
2014-5-28,61.9,56.6,53.1,52.1,48.9,46.4,80,76,65,30.18,29.84,6,1,6,0.00
2014-5-29,76.3,61.2,47.5,52.1,47.7,41.5,80,63,41,30.22,30.04,10,3,10,0.01
2014-5-30,72.7,60.8,52.9,58.5,51.8,45.9,79,73,60,30.10,30.01,16,2,16,0.10
2014-5-31,86.0,61.9,54.4,60.1,50.4,46.4,79,67,38,30.29,30.10,9,2,12,0.00
2014-6-1,85.9,66.1,49.3,59.8,52.0,43.4,81,63,38,30.33,30.12,14,4,14,0.00
2014-6-2,93.2,72.2,56.7,63.1,54.5,45.2,66,55,35,30.13,29.90,14,6,14,0.00
2014-6-3,86.8,73.6,66.1,70.2,62.2,55.5,77,68,52,29.93,29.71,15,5,15,0.05
2014-6-4,81.2,71.4,62.1,60.8,55.1,46.0,79,58,35,29.83,29.67,11,3,11,0.00
2014-6-5,71.3,61.9,53.5,55.9,51.2,44.6,77,68,56,29.76,29.63,7,2,7,0.04
2014-6-6,84.1,63.9,55.4,60.3,53.3,48.6,80,69,42,29.90,29.74,11,2,11,0.00
2014-6-7,94.0,67.8,55.4,65.4,56.2,48.6,79,68,37,29.97,29.87,4,1,4,0.00
2014-6-8,87.1,70.3,55.4,63.9,57.2,48.6,80,65,43,29.93,29.80,9,2,9,0.00
2014-6-9,81.9,72.4,65.3,65.6,60.3,56.5,77,66,51,29.95,29.83,7,2,7,0.00
2014-6-10,76.3,68.7,64.3,62.7,58.5,55.7,79,70,61,30.04,29.90,6,2,6,0.05
2014-6-11,71.5,62.8,58.0,57.6,54.2,51.3,79,74,58,30.14,30.04,6,2,6,0.41
2014-6-12,63.5,61.5,58.7,54.5,52.2,49.5,77,71,61,30.06,29.92,7,3,7,0.63
2014-6-13,69.1,65.7,63.2,61.1,53.9,49.1,78,66,59,29.93,29.71,5,2,6,0.70
2014-6-14,77.8,65.7,59.0,63.2,54.6,49.0,79,68,52,29.97,29.72,14,2,14,0.09
2014-6-15,78.7,65.2,57.1,58.1,54.0,50.0,80,68,48,30.09,29.96,15,2,15,0.00
2014-6-16,93.1,67.5,52.7,67.8,55.5,46.8,80,67,41,30.15,29.95,5,1,5,0.00
2014-6-17,95.8,73.5,63.0,72.4,62.2,54.4,79,68,47,30.03,29.63,7,1,7,0.19
2014-6-18,79.2,72.4,68.8,64.2,61.6,58.6,77,69,53,29.95,29.63,19,6,19,0.07
2014-6-19,89.3,70.8,65.2,61.6,54.7,48.6,79,58,33,30.02,29.93,14,2,14,0.00
2014-6-20,86.4,65.4,55.1,55.5,47.7,44.1,69,54,33,30.02,29.94,12,3,12,0.00
2014-6-21,76.9,61.2,49.5,56.6,48.9,42.2,79,65,46,29.99,29.89,5,1,5,0.00
2014-6-22,77.4,64.5,52.7,59.1,52.5,45.7,78,66,50,30.00,29.91,7,2,7,0.00
2014-6-23,84.4,70.0,54.7,64.0,56.1,48.2,80,63,42,30.09,29.99,10,2,10,0.00
2014-6-24,85.7,71.8,67.0,69.2,61.0,56.8,76,69,56,30.02,29.84,13,5,13,0.07
2014-6-25,71.1,68.6,67.3,63.3,58.0,52.7,78,69,58,29.88,29.82,8,3,8,1.93
2014-6-26,90.7,72.3,66.8,66.5,59.7,52.7,78,65,45,30.00,29.80,5,2,5,0.04
2014-6-27,98.3,71.0,58.0,66.0,57.0,50.8,79,64,33,30.16,30.00,3,1,3,0.00
2014-6-28,94.5,72.3,58.5,70.9,59.4,51.7,78,65,46,30.26,30.15,8,2,8,0.00
2014-6-29,101.0,77.5,62.5,71.6,63.4,55.1,78,63,39,30.19,29.98,10,4,10,0.00
2014-6-30,97.4,77.8,69.7,75.6,66.0,60.2,75,67,49,29.99,29.81,11,5,11,0.00
2014-7-1,91.8,80.5,71.6,75.2,69.9,62.9,77,70,57,29.85,29.63,15,5,15,0.00
2014-7-2,92.7,79.3,71.1,76.6,68.8,61.0,78,71,54,29.86,29.70,14,4,14,0.42
2014-7-3,82.3,73.7,68.8,72.7,63.2,53.4,77,70,58,29.94,29.81,11,3,11,0.69
2014-7-4,85.0,69.3,64.3,67.5,56.8,50.8,78,65,53,29.99,29.88,13,1,13,0.02
2014-7-5,83.7,71.2,63.7,57.7,51.9,46.8,67,51,40,30.03,29.91,24,10,24,0.00
2014-7-6,86.0,74.2,64.8,60.7,54.8,49.8,66,52,35,29.95,29.78,17,4,17,0.00
2014-7-7,82.3,72.5,63.4,70.8,62.0,54.2,78,70,61,29.79,29.58,12,4,12,0.00
2014-7-8,87.8,77.6,69.1,73.8,67.4,58.6,78,71,61,29.70,29.46,33,5,33,0.26
2014-7-9,83.2,73.9,67.1,68.9,61.0,56.4,78,64,51,29.89,29.54,10,4,10,0.02
2014-7-10,81.0,68.7,58.1,61.2,55.5,50.8,78,64,46,30.16,29.89,5,1,5,0.00
2014-7-11,90.4,67.7,55.4,66.6,55.6,48.6,80,66,45,30.24,30.13,2,1,2,0.00
2014-7-12,88.2,72.8,56.7,70.0,61.1,50.2,79,68,54,30.18,30.00,10,3,10,0.00
2014-7-13,79.6,74.1,69.5,69.8,65.2,59.7,77,74,64,30.00,29.73,15,5,15,0.20
2014-7-14,85.5,73.6,65.2,72.9,62.1,50.0,77,68,54,29.85,29.76,9,1,9,0.00
2014-7-15,81.5,74.3,67.0,72.0,66.2,59.1,78,76,72,29.80,29.64,14,3,14,0.00
2014-7-16,89.1,74.3,66.6,64.5,59.7,52.5,78,62,38,29.85,29.68,7,1,7,0.00
2014-7-17,90.7,67.7,56.5,64.7,55.3,49.5,79,65,40,30.06,29.84,5,1,6,0.00
2014-7-18,81.9,69.0,56.9,64.1,57.1,50.4,79,67,50,30.20,30.06,6,2,6,0.00
2014-7-19,81.9,70.3,59.2,64.1,58.7,52.6,79,68,49,30.25,30.14,8,2,8,0.00
2014-7-20,94.0,74.7,61.9,66.6,59.6,55.0,78,61,40,30.16,30.06,10,3,10,0.00
2014-7-21,87.8,74.2,61.7,68.0,61.8,54.5,78,66,52,30.16,30.05,9,2,9,0.00
2014-7-22,92.9,79.6,68.2,72.4,66.8,60.6,77,66,47,30.09,29.88,8,3,8,0.00
2014-7-23,91.1,77.3,70.4,75.3,67.7,61.2,77,73,54,29.88,29.67,12,4,12,0.22
2014-7-24,82.1,69.1,61.4,61.3,55.7,51.4,73,63,46,29.92,29.80,14,3,14,0.00
2014-7-25,84.2,70.0,56.2,64.4,56.8,49.7,79,64,44,29.97,29.85,8,2,8,0.00
2014-7-26,84.6,72.9,62.1,62.5,57.6,53.3,77,60,42,29.92,29.79,8,2,8,0.00
2014-7-27,91.8,72.4,64.8,74.2,62.6,56.0,78,72,54,29.80,29.56,11,3,11,0.35
2014-7-28,68.0,65.7,62.5,60.6,54.3,49.0,79,67,58,29.63,29.46,21,6,21,0.84
2014-7-29,75.8,66.4,59.4,59.6,55.7,52.2,79,69,54,29.93,29.62,24,1,24,0.00
2014-7-30,87.1,66.9,54.4,63.5,55.0,47.6,79,67,44,30.00,29.91,8,2,8,0.00
2014-7-31,88.9,68.3,60.5,69.2,58.5,53.5,79,71,49,30.08,29.95,24,4,24,0.20
2014-8-1,85.7,72.5,59.4,69.0,61.7,51.8,78,69,56,30.14,30.07,12,4,12,0.01
2014-8-2,85.3,74.0,65.2,69.9,63.5,57.3,78,70,54,30.15,30.03,9,3,9,0.00
2014-8-3,79.7,71.0,62.6,68.2,62.7,55.3,79,75,64,30.10,29.98,5,1,5,0.00
2014-8-4,70.4,68.3,67.0,62.7,59.1,55.7,77,72,66,30.03,29.98,4,0,4,0.47
2014-8-5,73.6,70.4,68.8,65.3,62.2,59.8,77,75,73,29.91,29.89,2,0,2,0.00
2014-8-6,88.9,71.1,63.0,62.8,59.3,54.2,78,67,41,29.90,29.83,5,1,5,0.00
2014-8-7,77.0,64.7,59.0,65.1,56.2,51.5,78,74,64,29.96,29.86,16,1,16,0.35
2014-8-8,89.5,67.5,56.0,68.7,57.2,47.8,78,70,50,30.06,29.96,5,1,5,0.00
2014-8-9,89.3,70.1,58.3,69.2,59.2,50.8,78,70,47,30.10,30.02,5,1,5,0.00
2014-8-10,93.2,70.7,58.0,69.0,59.7,51.1,79,69,42,30.14,30.06,4,1,4,0.00
2014-8-11,93.2,74.3,60.7,68.4,60.9,53.1,78,65,43,30.11,30.00,7,2,7,0.00
2014-8-12,81.4,72.4,65.0,63.9,60.9,56.7,77,68,52,30.03,29.87,13,3,13,0.01
2014-8-13,70.4,68.1,63.7,62.2,57.7,51.6,77,70,60,29.87,29.66,7,2,7,1.64
2014-8-14,75.4,64.0,58.3,57.2,51.7,47.6,79,65,49,29.83,29.66,12,2,12,0.01
2014-8-15,69.7,62.3,57.2,57.4,53.4,48.4,79,73,64,29.86,29.80,9,2,9,0.10
2014-8-16,68.9,63.5,57.4,59.1,55.5,50.6,79,75,70,29.88,29.78,10,4,10,0.00
2014-8-17,74.5,65.7,60.7,60.8,56.0,52.9,79,71,57,29.84,29.74,15,2,15,0.02
2014-8-18,77.4,65.4,57.4,57.9,53.6,50.0,78,66,51,29.88,29.81,13,2,13,0.00
2014-8-19,87.8,62.6,50.8,66.2,53.3,44.5,80,72,47,29.93,29.86,3,1,3,0.00
2014-8-20,83.9,68.6,54.4,69.1,59.3,47.6,79,73,59,29.97,29.91,7,1,7,0.00
2014-8-21,72.7,68.2,64.1,64.2,59.5,54.0,77,74,68,30.03,29.96,7,2,7,0.28
2014-8-22,66.1,64.2,63.0,57.7,54.3,51.3,76,70,64,30.10,30.00,5,1,5,0.03
2014-8-23,91.8,68.6,62.3,71.1,57.0,49.3,79,67,50,30.12,30.07,2,0,2,0.02
2014-8-24,89.5,68.6,57.1,69.3,57.6,48.2,78,69,49,30.17,30.08,3,0,3,0.00
2014-8-25,94.0,70.2,58.5,74.0,60.5,50.4,78,72,51,30.18,30.06,4,1,4,0.00
2014-8-26,94.9,75.2,62.1,70.1,62.5,53.5,78,66,44,30.11,29.93,9,4,9,0.00
2014-8-27,82.8,73.8,68.6,71.1,64.0,59.9,77,72,57,29.93,29.81,7,2,7,0.00
2014-8-28,71.3,67.8,64.4,60.9,56.4,52.4,78,67,56,30.02,29.84,13,2,13,0.00
2014-8-29,86.0,65.4,57.1,64.7,55.0,50.0,79,70,48,30.19,30.02,5,1,5,0.00
2014-8-30,82.8,69.4,58.7,64.9,58.4,52.2,79,69,54,30.17,29.99,12,5,12,0.00
2014-8-31,75.2,71.5,68.8,66.5,62.2,57.7,78,73,63,30.00,29.86,10,5,10,0.07
2014-9-1,93.4,77.4,67.7,73.7,63.8,52.6,77,63,52,29.94,29.83,7,2,8,0.00
2014-9-2,89.5,78.9,68.4,74.6,68.5,58.7,78,71,61,29.85,29.65,11,4,11,0.39
2014-9-3,85.0,70.5,62.3,66.0,57.7,51.8,77,64,46,30.06,29.72,10,2,10,0.00
2014-9-4,89.3,71.0,58.0,70.0,60.4,51.5,79,70,52,30.13,30.01,10,3,10,0.00
2014-9-5,90.2,76.8,66.2,75.1,67.0,59.1,78,72,61,30.07,29.84,11,5,11,0.00
2014-9-6,82.6,72.2,65.3,72.6,63.8,55.4,78,75,70,29.92,29.72,8,2,8,0.12
2014-9-7,80.3,67.0,57.6,58.9,54.8,50.9,79,66,46,30.21,29.92,7,1,7,0.00
2014-9-8,88.4,65.2,52.7,64.0,53.7,46.4,80,68,43,30.34,30.21,6,1,6,0.00
2014-9-9,83.7,65.8,54.9,59.3,52.8,48.0,79,64,43,30.33,30.13,8,3,8,0.00
2014-9-10,78.3,67.2,58.0,62.6,56.3,50.0,78,68,56,30.13,29.88,8,4,8,0.00
2014-9-11,76.0,67.7,60.3,66.9,58.4,50.1,79,72,55,29.97,29.63,16,5,16,0.07
2014-9-12,60.1,55.0,49.1,50.4,44.6,40.6,73,68,61,30.26,29.96,10,2,10,0.00
2014-9-13,55.6,50.3,42.1,48.8,43.6,36.4,81,78,73,30.26,30.02,8,2,8,0.20
2014-9-14,57.6,52.3,46.8,47.3,43.0,39.2,80,71,62,30.28,30.12,13,2,13,0.00
2014-9-15,70.4,55.2,41.4,50.9,44.6,35.9,82,69,49,30.22,30.02,8,2,8,0.01
2014-9-16,74.9,57.8,52.4,62.2,50.2,45.0,80,76,62,30.02,29.90,5,1,5,0.26
2014-9-17,74.5,57.1,45.5,54.1,47.0,40.0,81,70,49,29.99,29.88,6,2,6,0.00
2014-9-18,59.8,52.7,47.9,48.2,44.8,38.7,80,74,61,30.20,29.89,13,3,13,0.00
2014-9-19,68.0,49.8,43.9,44.0,36.4,32.9,73,61,41,30.39,30.20,12,3,12,0.00
2014-9-20,68.8,57.2,45.0,58.4,49.2,36.8,77,75,69,30.25,29.91,13,4,13,0.00
2014-9-21,83.5,69.9,59.9,64.4,59.0,52.6,79,69,49,29.92,29.51,13,4,13,0.48
2014-9-22,63.0,58.4,50.2,56.0,46.7,38.9,79,66,51,30.10,29.49,21,4,21,0.04
2014-9-23,66.8,56.1,45.4,53.8,46.2,37.5,79,70,58,30.39,30.09,8,2,8,0.01
2014-9-24,81.2,60.1,46.4,59.0,49.7,40.5,81,70,46,30.56,30.39,6,2,6,0.00
2014-9-25,71.8,58.4,49.7,58.1,50.4,43.6,80,75,58,30.48,30.24,6,2,6,0.00
2014-9-26,81.0,58.9,47.9,63.7,50.8,41.3,80,75,54,30.26,30.15,3,1,3,0.00
2014-9-27,81.0,61.8,50.8,65.4,53.1,43.3,79,74,59,30.22,30.13,3,1,3,0.00
2014-9-28,83.2,64.2,54.7,68.8,55.2,45.3,79,73,60,30.16,29.96,4,1,4,0.00
2014-9-29,80.5,63.3,56.2,65.4,54.6,47.1,79,73,58,29.98,29.87,3,0,3,0.00
2014-9-30,77.0,61.2,50.9,63.3,53.2,44.3,80,75,62,30.01,29.90,6,1,6,0.00
2014-10-1,71.3,59.0,55.6,60.8,51.7,46.5,79,77,66,30.13,30.00,6,1,6,0.00
2014-10-2,75.4,60.8,56.5,62.0,52.7,48.2,79,75,61,30.17,30.05,2,0,4,0.00
2014-10-3,83.9,63.4,54.0,59.3,50.8,45.4,79,65,42,30.07,29.75,10,4,10,0.00
2014-10-4,58.3,56.6,51.8,50.2,48.2,43.8,79,73,68,29.75,29.49,9,2,9,1.07
2014-10-5,64.8,53.5,46.3,47.0,41.4,37.3,80,65,40,29.89,29.58,10,2,10,0.04
2014-10-6,76.7,54.2,41.6,53.8,42.7,35.8,81,66,44,29.99,29.88,13,4,13,0.00
2014-10-7,76.5,61.1,54.2,58.2,51.0,45.7,79,70,51,29.96,29.82,12,4,12,0.04
2014-10-8,66.2,58.8,51.7,55.4,47.4,38.9,79,66,46,29.83,29.54,30,4,30,0.20
2014-10-9,61.9,52.3,47.2,42.2,39.6,37.1,73,62,44,29.93,29.80,14,3,14,0.00
2014-10-10,58.5,50.0,40.5,43.7,39.2,32.9,77,67,56,30.09,29.93,8,2,8,0.00
2014-10-11,54.9,47.3,40.3,45.2,39.8,34.9,81,75,61,30.13,30.03,4,1,4,0.00
2014-10-12,76.9,46.2,35.1,51.5,36.9,30.1,82,71,34,30.29,30.12,6,2,6,0.00
2014-10-13,66.6,50.5,38.7,52.7,42.6,32.8,81,74,59,30.25,30.14,11,5,11,0.00
2014-10-14,78.7,66.8,58.1,65.0,57.9,50.8,79,73,63,30.14,29.98,14,6,14,0.00
2014-10-15,85.1,72.2,65.3,68.4,62.6,58.0,78,72,56,29.99,29.83,13,4,13,0.00
2014-10-16,70.6,67.2,61.9,62.2,56.6,51.4,78,69,57,29.83,29.57,4,1,4,1.11
2014-10-17,70.2,62.0,58.0,56.3,52.2,49.1,79,71,54,29.59,29.51,8,2,8,0.01
2014-10-18,60.3,57.7,49.9,53.8,50.2,41.5,79,76,69,29.68,29.47,23,5,25,0.35
2014-10-19,50.0,45.2,41.4,42.4,34.5,26.8,75,66,56,29.98,29.67,24,8,24,0.00
2014-10-20,52.0,42.2,32.0,41.0,33.6,24.0,78,72,59,30.00,29.88,8,3,8,0.00
2014-10-21,50.8,48.5,45.5,43.6,41.4,39.2,81,77,71,30.06,29.88,14,4,14,0.10
2014-10-22,53.6,49.3,47.0,45.9,42.2,39.4,81,77,70,30.16,30.00,21,10,21,0.00
2014-10-23,50.6,47.0,45.5,42.0,39.9,36.9,81,76,70,30.01,29.82,23,12,23,0.41
2014-10-24,51.8,47.2,44.3,44.1,40.7,36.6,81,78,72,29.84,29.78,19,4,19,0.06
2014-10-25,58.7,49.0,41.6,49.9,42.2,35.7,82,77,69,29.79,29.42,10,3,10,0.02
2014-10-26,51.8,50.1,46.6,45.5,41.1,37.5,81,71,60,29.69,29.38,21,4,21,0.05
2014-10-27,70.6,50.6,45.4,51.9,40.6,37.2,80,69,48,29.99,29.69,17,2,17,0.00
2014-10-28,64.3,51.6,42.8,51.0,43.7,36.7,81,75,61,30.00,29.75,10,4,10,0.04
2014-10-29,62.1,55.6,45.4,52.9,45.2,35.8,80,69,53,29.84,29.73,19,3,19,0.00
2014-10-30,55.8,48.9,44.1,42.3,38.5,34.6,77,68,57,29.99,29.82,8,2,8,0.00
2014-10-31,50.4,43.5,35.1,37.2,34.3,29.1,80,70,57,30.04,29.96,16,4,16,0.00
2014-11-1,43.4,40.8,38.3,36.0,33.2,31.3,82,74,68,30.01,29.95,26,10,26,0.06
2014-11-2,46.1,40.8,36.9,33.9,27.6,19.4,79,61,42,30.00,29.87,32,18,32,0.00
2014-11-3,49.9,42.3,36.4,30.0,24.3,18.5,66,49,37,30.02,29.91,22,6,22,0.00
2014-11-4,59.0,48.8,33.7,39.6,34.5,24.5,74,59,44,30.05,29.83,12,4,12,0.00
2014-11-5,58.5,54.4,41.4,44.8,36.8,30.2,65,52,39,30.07,29.82,18,4,18,0.00
2014-11-6,47.9,44.0,39.8,40.0,36.0,30.0,80,73,66,30.06,29.62,21,4,21,0.23
2014-11-7,41.4,40.1,37.3,35.9,33.1,24.5,81,76,62,29.84,29.58,24,12,24,0.03
2014-11-8,43.9,37.8,27.7,29.1,26.1,19.4,73,63,53,29.94,29.77,19,5,19,0.00
2014-11-9,48.6,41.7,34.2,35.3,30.6,25.7,76,65,53,29.94,29.76,12,4,12,0.00
2014-11-10,53.3,42.1,32.9,42.6,33.7,26.3,79,72,63,30.11,29.93,9,4,9,0.00
2014-11-11,68.4,50.3,38.5,49.6,41.0,32.1,80,71,51,30.05,29.85,13,5,13,0.00
2014-11-12,54.4,48.3,36.5,46.4,37.8,26.2,80,68,49,30.05,29.77,15,4,15,0.01
2014-11-13,45.2,39.0,32.8,31.5,29.1,25.0,80,68,54,30.06,29.93,7,2,10,0.01
2014-11-14,40.0,34.0,27.4,30.2,24.5,17.6,83,69,52,30.11,29.91,22,6,22,0.00
2014-11-15,39.1,32.0,25.0,22.1,17.9,13.5,70,56,43,30.27,30.11,23,6,23,0.01
2014-11-16,39.8,34.7,28.8,26.0,23.2,19.2,72,63,53,30.27,30.03,15,6,15,0.00
2014-11-17,38.3,36.2,33.5,32.8,29.6,25.7,82,77,63,30.03,29.39,10,3,10,0.28
2014-11-18,40.3,30.6,24.3,34.3,14.6,6.0,81,52,37,29.76,29.43,30,9,30,0.00
2014-11-19,35.3,27.5,21.6,18.0,13.4,10.2,70,56,41,30.05,29.75,14,5,14,0.00
2014-11-20,36.7,29.5,23.8,24.8,16.4,11.6,70,59,39,29.91,29.72,30,6,30,0.00
2014-11-21,31.0,25.4,18.0,16.7,12.1,5.4,68,57,43,30.37,29.87,26,9,26,0.00
2014-11-22,38.2,28.9,18.0,25.0,16.5,6.7,72,60,47,30.35,29.94,22,11,22,0.00
2014-11-23,53.3,43.7,37.1,42.1,35.4,25.0,80,73,59,30.07,29.93,15,6,15,0.00
2014-11-24,68.2,54.9,42.7,59.7,46.9,35.1,80,74,63,29.93,29.34,19,6,19,0.58
2014-11-25,58.1,47.6,40.3,49.5,33.9,26.6,77,59,46,30.10,29.53,21,5,21,0.00
2014-11-26,43.6,35.4,30.6,28.5,25.6,23.2,82,68,53,30.24,29.92,25,8,25,0.01
2014-11-27,31.5,30.7,30.1,25.9,25.1,24.2,82,79,76,30.02,29.90,27,14,27,0.00
2014-11-28,31.5,23.4,13.7,25.7,12.3,5.2,79,62,55,30.20,29.99,13,6,13,0.01
2014-11-29,30.1,21.8,11.3,20.6,14.2,4.6,80,73,66,30.29,30.06,15,6,15,0.00
2014-11-30,42.7,37.4,27.5,35.3,30.1,19.4,81,75,71,30.07,29.88,15,6,15,0.03
2014-12-1,43.7,39.7,32.4,38.1,32.6,20.1,81,76,56,30.51,29.89,29,6,29,0.00
2014-12-2,32.2,23.7,16.6,24.7,15.2,8.1,83,70,60,30.77,30.32,17,4,19,0.00
2014-12-3,40.1,35.5,29.9,34.0,28.6,22.9,82,76,52,30.30,29.80,22,5,22,0.14
2014-12-4,39.1,31.3,20.2,25.3,18.1,8.7,73,58,48,30.59,30.02,28,8,28,0.00
2014-12-5,33.7,26.1,15.5,27.5,17.4,7.7,82,70,61,30.64,30.34,11,3,11,0.00
2014-12-6,36.2,34.1,32.2,30.9,28.7,26.9,82,81,74,30.38,30.17,21,3,21,0.28
2014-12-7,35.3,22.4,12.4,28.7,13.8,3.0,77,69,62,30.80,30.37,25,6,25,0.01
2014-12-8,26.5,19.8,11.3,18.3,9.8,3.3,74,65,50,30.76,30.44,14,4,14,0.00
2014-12-9,35.6,32.9,26.3,30.2,26.4,18.3,82,77,72,30.44,29.79,21,6,21,0.71
2014-12-10,35.6,33.4,32.0,29.3,26.1,24.6,79,74,72,29.79,29.49,29,12,29,0.29
2014-12-11,35.8,33.0,31.3,28.4,25.7,24.3,76,74,73,29.77,29.48,2,0,2,0.09
2014-12-12,33.3,30.5,28.1,27.3,24.2,21.4,80,77,75,29.95,29.76,0,0,0,0.01
2014-12-13,38.5,28.2,20.2,32.0,23.0,15.8,84,81,75,29.95,29.85,4,1,4,0.12
2014-12-14,33.7,26.4,16.7,28.3,21.8,12.5,84,82,81,29.98,29.85,4,1,4,0.01
2014-12-15,35.1,32.6,31.1,29.5,27.7,26.0,83,82,80,30.12,29.98,6,1,6,0.04
2014-12-16,35.8,33.5,30.6,30.6,28.1,25.4,82,81,76,30.10,29.85,10,5,10,0.14
2014-12-17,39.8,36.5,34.9,33.1,29.3,27.5,78,75,73,29.85,29.72,7,2,7,0.16
2014-12-18,38.0,35.0,31.9,32.6,27.2,23.8,83,73,67,29.91,29.72,21,6,21,0.03
2014-12-19,32.4,28.5,22.1,24.5,21.4,15.9,77,74,69,30.22,29.90,10,2,10,0.00
2014-12-20,32.2,23.8,20.2,23.6,17.4,14.9,82,76,69,30.32,30.22,4,2,4,0.00
2014-12-21,29.0,25.8,20.5,23.9,21.2,15.6,84,83,81,30.37,30.29,13,2,13,0.00
2014-12-22,34.4,29.6,27.0,28.6,24.8,22.5,83,82,78,30.37,30.22,4,1,4,0.00
2014-12-23,37.4,33.8,29.0,31.7,28.1,24.3,83,79,74,30.24,30.07,6,1,6,0.13
2014-12-24,42.8,39.5,36.4,34.7,31.5,28.8,77,73,70,30.07,29.39,8,2,8,0.45
2014-12-25,51.1,44.4,40.0,45.8,34.0,29.4,82,67,59,29.95,29.29,20,4,20,0.02
2014-12-26,48.8,39.6,33.7,35.3,30.7,26.6,77,71,59,30.13,29.95,7,2,7,0.00
2014-12-27,44.1,39.0,31.9,36.4,32.1,25.9,82,76,71,30.17,29.83,12,1,12,0.00
2014-12-28,47.0,41.6,32.0,40.1,32.5,19.8,82,70,52,30.00,29.71,23,3,23,0.00
2014-12-29,36.2,29.9,23.4,23.3,16.0,8.9,71,56,43,30.26,29.98,32,10,32,0.00
2014-12-30,27.9,18.9,13.0,10.9,5.9,1.5,67,57,46,30.39,30.25,14,3,14,0.00
2014-12-31,26.3,19.5,13.5,13.7,7.8,4.2,75,61,44,30.27,29.96,20,4,22,0.00
2015-1-1,29.9,26.2,20.5,16.5,12.6,9.1,64,56,51,29.95,29.77,18,7,18,0.00
2015-1-2,31.9,28.5,20.3,24.3,15.8,6.5,75,59,48,30.46,29.80,30,11,30,0.00